»·PEaware :: UAL576 KDEN-KSUN

UAL576 :: KDEN-KSUN

FLIGHT INFORMATION

Flight Status: Arrived
Operator:
United Airlines
More flights by this operator :: More flights under this callsign
Pilot: Anonymous 8274 (8274)
Aircraft: BOEING 737-200
(B732)
More flights by this aircraft type
Origin: KDEN Denver Intl
United States
Destination: KSUN Friedman Meml
United States
More flights between these airports :: More routes between these airports
Route: ROCKI3 EKR J173 TCH J12 TWF V484 KINZE V444 SOLDE
File this flight plan on PilotEdge
Remarks: ODD routing intentional
Altitude:
(Current/Filed)
30,000ft
Speed:
(Current/Filed)
460kts
Departed: 06-Jul-18 08:06 PM
Arrived: 06-Jul-18 09:55 PM
Distance/Time
Traveled:
484nm/1:49
Distance/Time
To Go:
Arrived

Flight Plot

Page will automatically refresh every two minutes.

Flight plan parsing failed; only flown route is shown


Map Options




Map Legend


Flown Route
Filed Route
Departure Airport
Arrival Airport
Navaid (VOR, NDB)
Fix

Horizontal Profiles

Position Reports

Time Latitude Longitude Heading Altitude Ground
Speed
06-Jul-18 19:26 39.858061 -104.670024 0 5325ft 0kts
06-Jul-18 19:27 39.858061 -104.670024 0 5325ft 0kts
06-Jul-18 19:28 39.858061 -104.670024 0 5325ft 0kts
06-Jul-18 19:29 39.858061 -104.670024 0 5325ft 0kts
06-Jul-18 19:30 39.858061 -104.670024 0 5325ft 0kts
06-Jul-18 19:31 39.858061 -104.670024 0 5325ft 0kts
06-Jul-18 19:32 39.858061 -104.670024 0 5325ft 0kts
06-Jul-18 19:33 39.858061 -104.670024 0 5325ft 0kts
06-Jul-18 19:34 39.858061 -104.670024 0 5325ft 0kts
06-Jul-18 19:35 39.858061 -104.670024 0 5325ft 0kts
06-Jul-18 19:36 39.858061 -104.670024 0 5325ft 0kts
06-Jul-18 19:37 39.858061 -104.670024 0 5325ft 0kts
06-Jul-18 19:38 39.858061 -104.670024 0 5325ft 0kts
06-Jul-18 19:39 39.858061 -104.670024 0 5325ft 0kts
06-Jul-18 19:40 39.858061 -104.670024 0 5325ft 0kts
06-Jul-18 19:42 39.858061 -104.670024 0 5325ft 0kts
06-Jul-18 19:43 39.858061 -104.670024 0 5325ft 0kts
06-Jul-18 19:44 39.858061 -104.670024 0 5325ft 0kts
06-Jul-18 19:45 39.858061 -104.670024 0 5325ft 0kts
06-Jul-18 19:46 39.858061 -104.670024 0 5325ft 0kts
06-Jul-18 19:47 39.858061 -104.670024 0 5325ft 0kts
06-Jul-18 19:48 39.858061 -104.670024 0 5325ft 0kts
06-Jul-18 19:49 39.858061 -104.670024 0 5325ft 0kts
06-Jul-18 19:50 39.858061 -104.670024 0 5325ft 0kts
06-Jul-18 19:51 39.858061 -104.670024 0 5325ft 0kts
06-Jul-18 19:52 39.858061 -104.670024 0 5325ft 0kts
06-Jul-18 19:53 39.858061 -104.670024 0 5325ft 0kts
06-Jul-18 19:54 39.858061 -104.670024 0 5325ft 0kts
06-Jul-18 19:55 39.857596 -104.670033 356 5325ft 2kts
06-Jul-18 19:56 39.857286 -104.669560 265 5325ft 1kts
06-Jul-18 19:57 39.857288 -104.669510 268 5324ft 0kts
06-Jul-18 19:58 39.857288 -104.669510 268 5324ft 0kts
06-Jul-18 19:59 39.857289 -104.669510 268 5324ft 0kts
06-Jul-18 20:00 39.857270 -104.672707 272 5325ft 13kts
06-Jul-18 20:01 39.857355 -104.678448 271 5325ft 18kts
06-Jul-18 20:02 39.856691 -104.681147 273 5325ft 0kts
06-Jul-18 20:03 39.856691 -104.681147 273 5325ft 0kts
06-Jul-18 20:04 39.856691 -104.681147 273 5325ft 0kts
06-Jul-18 20:05 39.856724 -104.681495 278 5325ft 8kts
06-Jul-18 20:06 39.859615 -104.685117 359 5325ft 30kts
06-Jul-18 20:07 39.872233 -104.684965 1 5325ft 57kts
06-Jul-18 20:08 39.890325 -104.684689 0 5325ft 69kts
06-Jul-18 20:09 39.896941 -104.685348 271 5325ft 0kts
06-Jul-18 20:10 39.896941 -104.685348 271 5325ft 0kts
06-Jul-18 20:11 39.896941 -104.685349 271 5325ft 0kts
06-Jul-18 20:12 39.895828 -104.686820 179 5325ft 27kts
06-Jul-18 20:13 39.863181 -104.688409 191 6034ft 156kts
06-Jul-18 20:14 39.850714 -104.746417 268 7245ft 222kts
06-Jul-18 20:15 39.850618 -104.836283 267 9081ft 272kts
06-Jul-18 20:16 39.859322 -104.942504 302 10052ft 337kts
06-Jul-18 20:17 39.942615 -104.981160 357 10019ft 333kts
06-Jul-18 20:18 40.034910 -104.986612 357 9983ft 335kts
06-Jul-18 20:19 40.122945 -105.014292 312 12263ft 339kts
06-Jul-18 20:20 40.127753 -105.132085 248 14307ft 352kts
06-Jul-18 20:21 40.094027 -105.248876 248 16698ft 347kts
06-Jul-18 20:22 40.053246 -105.367982 248 17955ft 371kts
06-Jul-18 20:23 40.009845 -105.491906 248 19506ft 379kts
06-Jul-18 20:24 40.011539 -105.622877 288 20836ft 374kts
06-Jul-18 20:25 40.042985 -105.754719 288 22282ft 377kts
06-Jul-18 20:26 40.031871 -105.887502 242 23411ft 400kts
06-Jul-18 20:27 40.004710 -106.025070 270 24444ft 395kts
06-Jul-18 20:28 40.004180 -106.166226 273 25407ft 399kts
06-Jul-18 20:29 40.011795 -106.310361 275 26209ft 404kts
06-Jul-18 20:30 40.012571 -106.457756 269 26929ft 411kts
06-Jul-18 20:31 40.013569 -106.606358 279 27617ft 411kts
06-Jul-18 20:32 40.022369 -106.754664 276 28289ft 414kts
06-Jul-18 20:33 40.029664 -106.904753 274 28875ft 418kts
06-Jul-18 20:34 40.034615 -107.056726 275 29452ft 420kts
06-Jul-18 20:35 40.039913 -107.209737 275 29831ft 425kts
06-Jul-18 20:36 40.043956 -107.364389 274 30265ft 428kts
06-Jul-18 20:37 40.048113 -107.519854 276 30400ft 431kts
06-Jul-18 20:38 40.056101 -107.672361 276 30401ft 430kts
06-Jul-18 20:39 40.064501 -107.827195 276 30401ft 430kts
06-Jul-18 20:40 40.082113 -107.980129 283 30400ft 426kts
06-Jul-18 20:41 40.111641 -108.128688 289 30400ft 423kts
06-Jul-18 20:42 40.142626 -108.277253 285 30400ft 423kts
06-Jul-18 20:43 40.171158 -108.425341 285 30389ft 422kts
06-Jul-18 20:44 40.199954 -108.573575 286 30290ft 423kts
06-Jul-18 20:45 40.228384 -108.718692 285 30293ft 422kts
06-Jul-18 20:46 40.257471 -108.866235 285 30293ft 421kts
06-Jul-18 20:47 40.286977 -109.014579 285 30292ft 420kts
06-Jul-18 20:48 40.316644 -109.162388 286 30291ft 419kts
06-Jul-18 20:49 40.346486 -109.309710 286 30263ft 419kts
06-Jul-18 20:50 40.376607 -109.457170 286 30262ft 418kts
06-Jul-18 20:51 40.408349 -109.603675 286 30260ft 417kts
06-Jul-18 20:52 40.434738 -109.725602 284 30266ft 417kts
06-Jul-18 20:53 40.465485 -109.871088 284 30265ft 417kts
06-Jul-18 20:54 40.498143 -110.016979 285 30267ft 418kts
06-Jul-18 20:55 40.527905 -110.164333 282 30263ft 418kts
06-Jul-18 20:56 40.555973 -110.312432 281 30262ft 418kts
06-Jul-18 20:57 40.580534 -110.461805 280 30261ft 418kts
06-Jul-18 20:58 40.605358 -110.610893 281 30278ft 418kts
06-Jul-18 20:59 40.629429 -110.753378 280 30427ft 415kts
06-Jul-18 21:00 40.654904 -110.902019 280 30428ft 417kts
06-Jul-18 21:01 40.680460 -111.050115 280 30427ft 418kts
06-Jul-18 21:02 40.706319 -111.199261 281 30426ft 418kts
06-Jul-18 21:03 40.732356 -111.348709 281 30425ft 419kts
06-Jul-18 21:04 40.762136 -111.497405 284 30424ft 420kts
06-Jul-18 21:05 40.793302 -111.644799 282 30388ft 421kts
06-Jul-18 21:06 40.819568 -111.788549 278 30214ft 425kts
06-Jul-18 21:07 40.842178 -111.941655 278 30131ft 427kts
06-Jul-18 21:08 40.879773 -112.088974 309 30144ft 442kts
06-Jul-18 21:09 40.979369 -112.186772 320 30130ft 450kts
06-Jul-18 21:10 41.068326 -112.298367 308 30159ft 442kts
06-Jul-18 21:11 41.148083 -112.412820 308 30152ft 443kts
06-Jul-18 21:12 41.231527 -112.532298 308 30152ft 443kts
06-Jul-18 21:13 41.314345 -112.650604 308 30151ft 444kts
06-Jul-18 21:14 41.396107 -112.772103 305 30157ft 443kts
06-Jul-18 21:15 41.475545 -112.897886 304 30162ft 444kts
06-Jul-18 21:16 41.551664 -113.026695 304 30156ft 445kts
06-Jul-18 21:17 41.631595 -113.153048 305 30157ft 446kts
06-Jul-18 21:18 41.711827 -113.279243 305 30155ft 447kts
06-Jul-18 21:19 41.792291 -113.405698 306 30156ft 447kts
06-Jul-18 21:20 41.872543 -113.531702 306 30184ft 447kts
06-Jul-18 21:21 41.951961 -113.656314 305 30185ft 448kts
06-Jul-18 21:22 42.034906 -113.781397 305 30191ft 453kts
06-Jul-18 21:23 42.117113 -113.908213 305 30180ft 455kts
06-Jul-18 21:24 42.199799 -114.036125 305 30124ft 446kts
06-Jul-18 21:25 42.278642 -114.161392 303 27735ft 434kts
06-Jul-18 21:26 42.353719 -114.285481 303 25457ft 423kts
06-Jul-18 21:27 42.426668 -114.406768 303 23300ft 411kts
06-Jul-18 21:28 42.508014 -114.510033 335 21283ft 410kts
06-Jul-18 21:29 42.620634 -114.511756 2 19292ft 402kts
06-Jul-18 21:29 42.710544 -114.489184 13 17655ft 391kts
06-Jul-18 21:30 42.813897 -114.453363 13 15647ft 379kts
06-Jul-18 21:31 42.914528 -114.420844 7 13704ft 367kts
06-Jul-18 21:32 43.013404 -114.403101 6 11809ft 356kts
06-Jul-18 21:33 43.104107 -114.395645 339 10517ft 325kts
06-Jul-18 21:34 43.166909 -114.468677 315 9892ft 278kts
06-Jul-18 21:35 43.218802 -114.535412 319 9292ft 249kts
06-Jul-18 21:36 43.273195 -114.581841 10 8981ft 223kts
06-Jul-18 21:37 43.298359 -114.512031 84 8780ft 221kts
06-Jul-18 21:38 43.295071 -114.428239 83 8763ft 218kts
06-Jul-18 21:39 43.306148 -114.347912 77 8782ft 215kts
06-Jul-18 21:40 43.317880 -114.268297 77 8772ft 213kts
06-Jul-18 21:41 43.303493 -114.200644 173 8794ft 207kts
06-Jul-18 21:42 43.246538 -114.202445 186 8071ft 204kts
06-Jul-18 21:43 43.192303 -114.202372 183 8068ft 192kts
06-Jul-18 21:44 43.147710 -114.232943 212 8058ft 174kts
06-Jul-18 21:45 43.103633 -114.238819 118 8099ft 192kts
06-Jul-18 21:46 43.128803 -114.184384 28 8068ft 189kts
06-Jul-18 21:47 43.178251 -114.189955 347 8074ft 182kts
06-Jul-18 21:48 43.226964 -114.206172 342 8071ft 179kts
06-Jul-18 21:49 43.273744 -114.227532 339 8109ft 175kts
06-Jul-18 21:50 43.319581 -114.239909 352 8061ft 161kts
06-Jul-18 21:51 43.362888 -114.246829 351 7933ft 149kts
06-Jul-18 21:52 43.404240 -114.250181 358 7516ft 150kts
06-Jul-18 21:53 43.446033 -114.251026 353 6479ft 146kts
06-Jul-18 21:54 43.481464 -114.273816 323 5725ft 144kts
06-Jul-18 21:55 43.507660 -114.299299 325 5299ft 35kts
06-Jul-18 21:57 43.507870 -114.301014 145 5299ft 5kts
06-Jul-18 21:58 43.507616 -114.300883 198 5299ft 7kts
06-Jul-18 21:59 43.507088 -114.301454 162 5299ft 0kts

Navigation Log

Ident Type
Flight plan parsing failed, navigation log unavailable